sensor_id;sensor_type;location;lat;lon;timestamp;P1;durP1;ratioP1;P2;durP2;ratioP2
65238;SDS011;51827;51.186;6.926;2022-07-23T00:00:10;8.93;;;5.13;;
65238;SDS011;51827;51.186;6.926;2022-07-23T00:01:11;9.25;;;5.10;;
65238;SDS011;51827;51.186;6.926;2022-07-23T00:02:11;9.77;;;5.30;;
65238;SDS011;51827;51.186;6.926;2022-07-23T00:03:11;11.37;;;5.87;;
65238;SDS011;51827;51.186;6.926;2022-07-23T00:04:12;8.80;;;5.30;;
65238;SDS011;51827;51.186;6.926;2022-07-23T00:05:12;9.63;;;5.37;;
65238;SDS011;51827;51.186;6.926;2022-07-23T00:06:12;10.00;;;5.63;;
65238;SDS011;51827;51.186;6.926;2022-07-23T00:07:13;8.98;;;4.85;;
65238;SDS011;51827;51.186;6.926;2022-07-23T00:08:13;9.87;;;5.00;;
65238;SDS011;51827;51.186;6.926;2022-07-23T00:09:13;8.40;;;5.10;;
65238;SDS011;51827;51.186;6.926;2022-07-23T00:10:13;7.77;;;4.93;;
65238;SDS011;51827;51.186;6.926;2022-07-23T00:11:14;9.30;;;5.38;;
65238;SDS011;51827;51.186;6.926;2022-07-23T00:12:14;8.90;;;4.75;;
65238;SDS011;51827;51.186;6.926;2022-07-23T00:13:15;12.43;;;5.17;;
65238;SDS011;51827;51.186;6.926;2022-07-23T00:14:15;10.30;;;5.40;;
65238;SDS011;51827;51.186;6.926;2022-07-23T00:15:15;13.73;;;5.80;;
65238;SDS011;51827;51.186;6.926;2022-07-23T00:16:15;14.47;;;5.70;;
65238;SDS011;51827;51.186;6.926;2022-07-23T00:17:16;9.30;;;5.13;;
65238;SDS011;51827;51.186;6.926;2022-07-23T00:18:16;9.43;;;5.17;;
65238;SDS011;51827;51.186;6.926;2022-07-23T00:19:16;11.70;;;5.47;;
65238;SDS011;51827;51.186;6.926;2022-07-23T00:20:16;16.50;;;5.80;;
65238;SDS011;51827;51.186;6.926;2022-07-23T00:21:17;10.23;;;5.20;;
65238;SDS011;51827;51.186;6.926;2022-07-23T00:22:17;8.23;;;5.10;;
65238;SDS011;51827;51.186;6.926;2022-07-23T00:23:17;8.30;;;5.20;;
65238;SDS011;51827;51.186;6.926;2022-07-23T00:24:18;7.40;;;4.80;;
65238;SDS011;51827;51.186;6.926;2022-07-23T00:25:18;7.93;;;5.60;;
65238;SDS011;51827;51.186;6.926;2022-07-23T00:26:19;9.40;;;5.43;;
65238;SDS011;51827;51.186;6.926;2022-07-23T00:27:19;9.73;;;5.47;;
65238;SDS011;51827;51.186;6.926;2022-07-23T00:28:19;8.70;;;5.33;;
65238;SDS011;51827;51.186;6.926;2022-07-23T00:29:20;12.17;;;5.73;;
65238;SDS011;51827;51.186;6.926;2022-07-23T00:30:20;9.50;;;5.40;;
65238;SDS011;51827;51.186;6.926;2022-07-23T00:31:20;8.05;;;4.85;;
65238;SDS011;51827;51.186;6.926;2022-07-23T00:32:21;9.73;;;5.60;;
65238;SDS011;51827;51.186;6.926;2022-07-23T00:33:21;8.70;;;5.10;;
65238;SDS011;51827;51.186;6.926;2022-07-23T00:34:21;14.37;;;6.27;;
65238;SDS011;51827;51.186;6.926;2022-07-23T00:35:22;9.30;;;5.23;;
65238;SDS011;51827;51.186;6.926;2022-07-23T00:36:23;11.25;;;5.90;;
65238;SDS011;51827;51.186;6.926;2022-07-23T00:37:23;8.47;;;5.57;;
65238;SDS011;51827;51.186;6.926;2022-07-23T00:38:24;9.57;;;6.10;;
65238;SDS011;51827;51.186;6.926;2022-07-23T00:39:24;13.40;;;5.73;;
65238;SDS011;51827;51.186;6.926;2022-07-23T00:40:25;11.47;;;5.83;;
65238;SDS011;51827;51.186;6.926;2022-07-23T00:42:26;11.00;;;5.80;;
65238;SDS011;51827;51.186;6.926;2022-07-23T00:43:26;9.40;;;5.80;;
65238;SDS011;51827;51.186;6.926;2022-07-23T00:44:27;11.37;;;6.17;;
65238;SDS011;51827;51.186;6.926;2022-07-23T00:45:31;11.23;;;6.30;;
65238;SDS011;51827;51.186;6.926;2022-07-23T00:46:31;8.95;;;5.72;;
65238;SDS011;51827;51.186;6.926;2022-07-23T00:47:31;10.33;;;6.00;;
65238;SDS011;51827;51.186;6.926;2022-07-23T00:48:32;9.85;;;6.18;;
65238;SDS011;51827;51.186;6.926;2022-07-23T00:49:32;7.73;;;5.43;;
65238;SDS011;51827;51.186;6.926;2022-07-23T00:50:33;13.10;;;5.90;;
65238;SDS011;51827;51.186;6.926;2022-07-23T00:51:33;9.77;;;5.60;;
65238;SDS011;51827;51.186;6.926;2022-07-23T00:52:34;11.80;;;6.30;;
65238;SDS011;51827;51.186;6.926;2022-07-23T00:53:35;12.00;;;5.95;;
65238;SDS011;51827;51.186;6.926;2022-07-23T00:54:35;10.05;;;5.88;;
65238;SDS011;51827;51.186;6.926;2022-07-23T00:55:36;10.93;;;6.05;;
65238;SDS011;51827;51.186;6.926;2022-07-23T00:57:38;11.90;;;5.97;;
65238;SDS011;51827;51.186;6.926;2022-07-23T00:58:38;11.75;;;6.20;;
65238;SDS011;51827;51.186;6.926;2022-07-23T00:59:42;9.50;;;5.85;;
65238;SDS011;51827;51.186;6.926;2022-07-23T01:00:42;10.03;;;6.40;;
65238;SDS011;51827;51.186;6.926;2022-07-23T01:01:43;11.07;;;6.03;;
65238;SDS011;51827;51.186;6.926;2022-07-23T01:02:43;9.37;;;6.10;;
65238;SDS011;51827;51.186;6.926;2022-07-23T01:03:44;9.43;;;6.13;;
65238;SDS011;51827;51.186;6.926;2022-07-23T01:04:44;10.47;;;6.00;;
65238;SDS011;51827;51.186;6.926;2022-07-23T01:05:45;10.95;;;6.40;;
65238;SDS011;51827;51.186;6.926;2022-07-23T01:06:45;10.73;;;6.10;;
65238;SDS011;51827;51.186;6.926;2022-07-23T01:07:46;11.32;;;5.72;;
65238;SDS011;51827;51.186;6.926;2022-07-23T01:08:46;9.43;;;5.77;;
65238;SDS011;51827;51.186;6.926;2022-07-23T01:10:52;9.95;;;5.82;;
65238;SDS011;51827;51.186;6.926;2022-07-23T01:11:53;11.40;;;5.67;;
65238;SDS011;51827;51.186;6.926;2022-07-23T01:12:55;13.38;;;5.85;;
65238;SDS011;51827;51.186;6.926;2022-07-23T01:13:56;9.93;;;5.88;;
65238;SDS011;51827;51.186;6.926;2022-07-23T01:14:57;8.67;;;5.87;;
65238;SDS011;51827;51.186;6.926;2022-07-23T01:15:58;11.95;;;5.88;;
65238;SDS011;51827;51.186;6.926;2022-07-23T01:16:59;12.30;;;6.13;;
65238;SDS011;51827;51.186;6.926;2022-07-23T01:17:59;8.32;;;5.47;;
65238;SDS011;51827;51.186;6.926;2022-07-23T01:19:00;7.80;;;5.88;;
65238;SDS011;51827;51.186;6.926;2022-07-23T01:20:00;9.03;;;6.10;;
65238;SDS011;51827;51.186;6.926;2022-07-23T01:21:00;9.27;;;5.60;;
65238;SDS011;51827;51.186;6.926;2022-07-23T01:22:02;9.88;;;5.50;;
65238;SDS011;51827;51.186;6.926;2022-07-23T01:23:03;10.57;;;5.60;;
65238;SDS011;51827;51.186;6.926;2022-07-23T01:24:03;12.20;;;6.05;;
65238;SDS011;51827;51.186;6.926;2022-07-23T01:25:04;8.23;;;5.35;;
65238;SDS011;51827;51.186;6.926;2022-07-23T01:26:05;11.82;;;5.65;;
65238;SDS011;51827;51.186;6.926;2022-07-23T01:27:05;9.07;;;5.50;;
65238;SDS011;51827;51.186;6.926;2022-07-23T01:28:06;10.87;;;5.60;;
65238;SDS011;51827;51.186;6.926;2022-07-23T01:29:06;10.13;;;5.90;;
65238;SDS011;51827;51.186;6.926;2022-07-23T01:30:06;9.80;;;5.90;;
65238;SDS011;51827;51.186;6.926;2022-07-23T01:31:07;10.82;;;6.00;;
65238;SDS011;51827;51.186;6.926;2022-07-23T01:32:07;10.30;;;5.67;;
65238;SDS011;51827;51.186;6.926;2022-07-23T01:33:07;9.57;;;5.50;;
65238;SDS011;51827;51.186;6.926;2022-07-23T01:34:08;9.33;;;5.80;;
65238;SDS011;51827;51.186;6.926;2022-07-23T01:35:09;9.57;;;5.20;;
65238;SDS011;51827;51.186;6.926;2022-07-23T01:36:09;9.10;;;4.95;;
65238;SDS011;51827;51.186;6.926;2022-07-23T01:37:09;9.60;;;5.45;;
65238;SDS011;51827;51.186;6.926;2022-07-23T01:38:10;8.93;;;5.30;;
65238;SDS011;51827;51.186;6.926;2022-07-23T01:39:10;12.47;;;5.63;;
65238;SDS011;51827;51.186;6.926;2022-07-23T01:40:10;8.83;;;5.40;;
65238;SDS011;51827;51.186;6.926;2022-07-23T01:41:10;10.23;;;5.50;;
65238;SDS011;51827;51.186;6.926;2022-07-23T01:42:11;9.37;;;5.30;;
65238;SDS011;51827;51.186;6.926;2022-07-23T01:43:11;10.70;;;5.33;;
65238;SDS011;51827;51.186;6.926;2022-07-23T01:44:11;10.77;;;5.63;;
65238;SDS011;51827;51.186;6.926;2022-07-23T01:45:12;7.10;;;5.20;;
65238;SDS011;51827;51.186;6.926;2022-07-23T01:46:12;10.45;;;5.78;;
65238;SDS011;51827;51.186;6.926;2022-07-23T01:47:12;8.35;;;5.38;;
65238;SDS011;51827;51.186;6.926;2022-07-23T01:48:13;9.43;;;5.00;;
65238;SDS011;51827;51.186;6.926;2022-07-23T01:49:13;8.37;;;5.60;;
65238;SDS011;51827;51.186;6.926;2022-07-23T01:50:13;9.53;;;5.47;;
65238;SDS011;51827;51.186;6.926;2022-07-23T01:51:14;9.57;;;5.70;;
65238;SDS011;51827;51.186;6.926;2022-07-23T01:52:14;9.02;;;5.15;;
65238;SDS011;51827;51.186;6.926;2022-07-23T01:53:14;9.47;;;5.57;;
65238;SDS011;51827;51.186;6.926;2022-07-23T01:54:15;8.43;;;5.60;;
65238;SDS011;51827;51.186;6.926;2022-07-23T01:55:15;8.80;;;5.30;;
65238;SDS011;51827;51.186;6.926;2022-07-23T01:56:15;9.20;;;5.03;;
65238;SDS011;51827;51.186;6.926;2022-07-23T01:57:16;10.13;;;5.40;;
65238;SDS011;51827;51.186;6.926;2022-07-23T01:58:16;7.30;;;5.30;;
65238;SDS011;51827;51.186;6.926;2022-07-23T01:59:16;9.23;;;5.10;;
65238;SDS011;51827;51.186;6.926;2022-07-23T02:00:16;10.07;;;5.03;;
65238;SDS011;51827;51.186;6.926;2022-07-23T02:01:17;10.13;;;5.67;;
65238;SDS011;51827;51.186;6.926;2022-07-23T02:02:17;9.77;;;5.40;;
65238;SDS011;51827;51.186;6.926;2022-07-23T02:03:17;7.90;;;4.47;;
65238;SDS011;51827;51.186;6.926;2022-07-23T02:04:21;10.87;;;6.00;;
65238;SDS011;51827;51.186;6.926;2022-07-23T02:05:22;8.73;;;5.00;;
65238;SDS011;51827;51.186;6.926;2022-07-23T02:06:22;13.73;;;5.45;;
65238;SDS011;51827;51.186;6.926;2022-07-23T02:07:22;6.40;;;4.77;;
65238;SDS011;51827;51.186;6.926;2022-07-23T02:08:23;7.80;;;4.90;;
65238;SDS011;51827;51.186;6.926;2022-07-23T02:09:23;8.43;;;5.23;;
65238;SDS011;51827;51.186;6.926;2022-07-23T02:10:23;8.13;;;4.87;;
65238;SDS011;51827;51.186;6.926;2022-07-23T02:11:24;7.68;;;4.70;;
65238;SDS011;51827;51.186;6.926;2022-07-23T02:12:24;7.43;;;4.83;;
65238;SDS011;51827;51.186;6.926;2022-07-23T02:13:24;13.33;;;5.07;;
65238;SDS011;51827;51.186;6.926;2022-07-23T02:14:25;8.33;;;4.90;;
65238;SDS011;51827;51.186;6.926;2022-07-23T02:15:26;7.20;;;5.00;;
65238;SDS011;51827;51.186;6.926;2022-07-23T02:16:26;6.53;;;4.40;;
65238;SDS011;51827;51.186;6.926;2022-07-23T02:17:26;6.63;;;4.83;;
65238;SDS011;51827;51.186;6.926;2022-07-23T02:18:26;9.67;;;4.93;;
65238;SDS011;51827;51.186;6.926;2022-07-23T02:19:27;7.90;;;4.90;;
65238;SDS011;51827;51.186;6.926;2022-07-23T02:20:27;7.93;;;4.80;;
65238;SDS011;51827;51.186;6.926;2022-07-23T02:21:27;8.00;;;4.57;;
65238;SDS011;51827;51.186;6.926;2022-07-23T02:22:27;7.57;;;4.93;;
65238;SDS011;51827;51.186;6.926;2022-07-23T02:23:28;10.87;;;5.13;;
65238;SDS011;51827;51.186;6.926;2022-07-23T02:24:28;9.80;;;5.43;;
65238;SDS011;51827;51.186;6.926;2022-07-23T02:25:28;8.57;;;4.57;;
65238;SDS011;51827;51.186;6.926;2022-07-23T02:26:29;7.50;;;4.83;;
65238;SDS011;51827;51.186;6.926;2022-07-23T02:27:29;6.97;;;4.80;;
65238;SDS011;51827;51.186;6.926;2022-07-23T02:28:29;8.27;;;4.50;;
65238;SDS011;51827;51.186;6.926;2022-07-23T02:29:29;7.83;;;4.77;;
65238;SDS011;51827;51.186;6.926;2022-07-23T02:30:30;7.87;;;4.73;;
65238;SDS011;51827;51.186;6.926;2022-07-23T02:31:30;8.47;;;4.80;;
65238;SDS011;51827;51.186;6.926;2022-07-23T02:32:30;7.13;;;4.50;;
65238;SDS011;51827;51.186;6.926;2022-07-23T02:33:31;7.03;;;4.82;;
65238;SDS011;51827;51.186;6.926;2022-07-23T02:34:31;9.97;;;4.80;;
65238;SDS011;51827;51.186;6.926;2022-07-23T02:35:31;7.13;;;4.23;;
65238;SDS011;51827;51.186;6.926;2022-07-23T02:36:31;6.20;;;4.30;;
65238;SDS011;51827;51.186;6.926;2022-07-23T02:37:32;8.90;;;5.00;;
65238;SDS011;51827;51.186;6.926;2022-07-23T02:38:32;8.82;;;4.63;;
65238;SDS011;51827;51.186;6.926;2022-07-23T02:39:33;6.67;;;4.43;;
65238;SDS011;51827;51.186;6.926;2022-07-23T02:40:33;8.23;;;4.63;;
65238;SDS011;51827;51.186;6.926;2022-07-23T02:41:33;8.23;;;4.77;;
65238;SDS011;51827;51.186;6.926;2022-07-23T02:42:33;8.93;;;4.30;;
65238;SDS011;51827;51.186;6.926;2022-07-23T02:43:34;8.33;;;4.50;;
65238;SDS011;51827;51.186;6.926;2022-07-23T02:44:34;8.60;;;4.97;;
65238;SDS011;51827;51.186;6.926;2022-07-23T02:45:34;7.03;;;4.37;;
65238;SDS011;51827;51.186;6.926;2022-07-23T02:46:35;8.63;;;4.50;;
65238;SDS011;51827;51.186;6.926;2022-07-23T02:47:35;6.57;;;4.60;;
65238;SDS011;51827;51.186;6.926;2022-07-23T02:48:35;7.03;;;3.97;;
65238;SDS011;51827;51.186;6.926;2022-07-23T02:49:35;7.70;;;4.97;;
65238;SDS011;51827;51.186;6.926;2022-07-23T02:50:36;7.63;;;4.50;;
65238;SDS011;51827;51.186;6.926;2022-07-23T02:51:36;6.90;;;4.50;;
65238;SDS011;51827;51.186;6.926;2022-07-23T02:52:36;7.33;;;4.70;;
65238;SDS011;51827;51.186;6.926;2022-07-23T02:53:37;7.90;;;4.93;;
65238;SDS011;51827;51.186;6.926;2022-07-23T02:54:37;6.83;;;4.57;;
65238;SDS011;51827;51.186;6.926;2022-07-23T02:55:38;7.75;;;4.80;;
65238;SDS011;51827;51.186;6.926;2022-07-23T02:56:38;7.83;;;4.63;;
65238;SDS011;51827;51.186;6.926;2022-07-23T02:57:38;8.47;;;4.57;;
65238;SDS011;51827;51.186;6.926;2022-07-23T02:58:38;6.40;;;4.23;;
65238;SDS011;51827;51.186;6.926;2022-07-23T02:59:39;8.00;;;4.87;;
65238;SDS011;51827;51.186;6.926;2022-07-23T03:00:39;6.67;;;4.87;;
65238;SDS011;51827;51.186;6.926;2022-07-23T03:01:40;6.93;;;4.45;;
65238;SDS011;51827;51.186;6.926;2022-07-23T03:02:40;9.20;;;5.03;;
65238;SDS011;51827;51.186;6.926;2022-07-23T03:03:40;7.90;;;4.40;;
65238;SDS011;51827;51.186;6.926;2022-07-23T03:04:40;7.03;;;4.47;;
65238;SDS011;51827;51.186;6.926;2022-07-23T03:05:41;6.47;;;4.30;;
65238;SDS011;51827;51.186;6.926;2022-07-23T03:06:41;7.03;;;4.40;;
65238;SDS011;51827;51.186;6.926;2022-07-23T03:07:41;7.87;;;4.30;;
65238;SDS011;51827;51.186;6.926;2022-07-23T03:08:42;9.33;;;4.50;;
65238;SDS011;51827;51.186;6.926;2022-07-23T03:09:42;11.13;;;4.83;;
65238;SDS011;51827;51.186;6.926;2022-07-23T03:10:42;9.03;;;4.53;;
65238;SDS011;51827;51.186;6.926;2022-07-23T03:11:42;6.60;;;4.50;;
65238;SDS011;51827;51.186;6.926;2022-07-23T03:12:43;7.47;;;4.37;;
65238;SDS011;51827;51.186;6.926;2022-07-23T03:13:43;7.03;;;4.20;;
65238;SDS011;51827;51.186;6.926;2022-07-23T03:14:43;7.63;;;4.50;;
65238;SDS011;51827;51.186;6.926;2022-07-23T03:15:44;7.53;;;4.13;;
65238;SDS011;51827;51.186;6.926;2022-07-23T03:16:44;9.30;;;4.50;;
65238;SDS011;51827;51.186;6.926;2022-07-23T03:17:44;7.60;;;4.30;;
65238;SDS011;51827;51.186;6.926;2022-07-23T03:18:44;5.90;;;4.30;;
65238;SDS011;51827;51.186;6.926;2022-07-23T03:19:45;7.77;;;4.93;;
65238;SDS011;51827;51.186;6.926;2022-07-23T03:20:45;7.97;;;4.70;;
65238;SDS011;51827;51.186;6.926;2022-07-23T03:21:45;8.40;;;4.30;;
65238;SDS011;51827;51.186;6.926;2022-07-23T03:22:46;8.17;;;3.80;;
65238;SDS011;51827;51.186;6.926;2022-07-23T03:23:46;7.07;;;4.17;;
65238;SDS011;51827;51.186;6.926;2022-07-23T03:24:46;9.57;;;4.13;;
65238;SDS011;51827;51.186;6.926;2022-07-23T03:25:46;6.07;;;4.13;;
65238;SDS011;51827;51.186;6.926;2022-07-23T03:26:47;7.77;;;4.40;;
65238;SDS011;51827;51.186;6.926;2022-07-23T03:27:47;7.00;;;4.43;;
65238;SDS011;51827;51.186;6.926;2022-07-23T03:28:47;8.60;;;4.50;;
65238;SDS011;51827;51.186;6.926;2022-07-23T03:29:48;6.23;;;3.87;;
65238;SDS011;51827;51.186;6.926;2022-07-23T03:30:49;7.97;;;4.43;;
65238;SDS011;51827;51.186;6.926;2022-07-23T03:31:49;7.93;;;5.07;;
65238;SDS011;51827;51.186;6.926;2022-07-23T03:32:49;12.10;;;4.33;;
65238;SDS011;51827;51.186;6.926;2022-07-23T03:33:50;6.27;;;4.40;;
65238;SDS011;51827;51.186;6.926;2022-07-23T03:34:50;7.83;;;4.60;;
65238;SDS011;51827;51.186;6.926;2022-07-23T03:35:51;9.65;;;4.43;;
65238;SDS011;51827;51.186;6.926;2022-07-23T03:36:51;7.87;;;4.80;;
65238;SDS011;51827;51.186;6.926;2022-07-23T03:37:51;8.87;;;4.17;;
65238;SDS011;51827;51.186;6.926;2022-07-23T03:38:51;6.37;;;3.83;;
65238;SDS011;51827;51.186;6.926;2022-07-23T03:39:52;6.82;;;4.10;;
65238;SDS011;51827;51.186;6.926;2022-07-23T03:40:52;7.13;;;4.23;;
65238;SDS011;51827;51.186;6.926;2022-07-23T03:41:53;8.27;;;4.53;;
65238;SDS011;51827;51.186;6.926;2022-07-23T03:42:53;7.03;;;4.10;;
65238;SDS011;51827;51.186;6.926;2022-07-23T03:43:53;7.53;;;4.50;;
65238;SDS011;51827;51.186;6.926;2022-07-23T03:44:54;6.57;;;4.50;;
65238;SDS011;51827;51.186;6.926;2022-07-23T03:45:54;6.70;;;4.43;;
65238;SDS011;51827;51.186;6.926;2022-07-23T03:46:54;7.70;;;4.63;;
65238;SDS011;51827;51.186;6.926;2022-07-23T03:47:54;8.57;;;4.43;;
65238;SDS011;51827;51.186;6.926;2022-07-23T03:48:55;5.13;;;3.83;;
65238;SDS011;51827;51.186;6.926;2022-07-23T03:49:55;7.37;;;4.43;;
65238;SDS011;51827;51.186;6.926;2022-07-23T03:50:55;8.10;;;4.27;;
65238;SDS011;51827;51.186;6.926;2022-07-23T03:51:55;10.37;;;3.87;;
65238;SDS011;51827;51.186;6.926;2022-07-23T03:52:56;7.03;;;4.33;;
65238;SDS011;51827;51.186;6.926;2022-07-23T03:53:56;8.37;;;4.40;;
65238;SDS011;51827;51.186;6.926;2022-07-23T03:54:56;14.00;;;4.73;;
65238;SDS011;51827;51.186;6.926;2022-07-23T03:55:56;8.07;;;4.43;;
65238;SDS011;51827;51.186;6.926;2022-07-23T03:56:57;9.87;;;4.27;;
65238;SDS011;51827;51.186;6.926;2022-07-23T03:57:57;7.50;;;4.20;;
65238;SDS011;51827;51.186;6.926;2022-07-23T03:58:57;6.47;;;4.20;;
65238;SDS011;51827;51.186;6.926;2022-07-23T03:59:57;6.30;;;4.30;;
65238;SDS011;51827;51.186;6.926;2022-07-23T04:00:58;7.85;;;4.60;;
65238;SDS011;51827;51.186;6.926;2022-07-23T04:01:58;6.13;;;3.77;;
65238;SDS011;51827;51.186;6.926;2022-07-23T04:02:58;6.57;;;4.60;;
65238;SDS011;51827;51.186;6.926;2022-07-23T04:03:59;7.60;;;4.40;;
65238;SDS011;51827;51.186;6.926;2022-07-23T04:04:59;7.93;;;5.05;;
65238;SDS011;51827;51.186;6.926;2022-07-23T04:05:59;8.47;;;4.90;;
65238;SDS011;51827;51.186;6.926;2022-07-23T04:07:00;6.80;;;4.27;;
65238;SDS011;51827;51.186;6.926;2022-07-23T04:08:00;10.03;;;4.70;;
65238;SDS011;51827;51.186;6.926;2022-07-23T04:09:00;6.27;;;4.30;;
65238;SDS011;51827;51.186;6.926;2022-07-23T04:10:01;7.18;;;4.38;;
65238;SDS011;51827;51.186;6.926;2022-07-23T04:11:01;5.83;;;4.27;;
65238;SDS011;51827;51.186;6.926;2022-07-23T04:12:01;7.28;;;4.00;;
65238;SDS011;51827;51.186;6.926;2022-07-23T04:13:02;6.30;;;4.53;;
65238;SDS011;51827;51.186;6.926;2022-07-23T04:14:02;6.60;;;4.47;;
65238;SDS011;51827;51.186;6.926;2022-07-23T04:15:02;8.70;;;4.60;;
65238;SDS011;51827;51.186;6.926;2022-07-23T04:16:03;8.70;;;4.50;;
65238;SDS011;51827;51.186;6.926;2022-07-23T04:17:04;9.43;;;4.40;;
65238;SDS011;51827;51.186;6.926;2022-07-23T04:18:04;7.57;;;4.27;;
65238;SDS011;51827;51.186;6.926;2022-07-23T04:19:04;6.95;;;4.50;;
65238;SDS011;51827;51.186;6.926;2022-07-23T04:20:05;7.07;;;4.30;;
65238;SDS011;51827;51.186;6.926;2022-07-23T04:21:05;7.97;;;4.68;;
65238;SDS011;51827;51.186;6.926;2022-07-23T04:22:06;6.20;;;4.43;;
65238;SDS011;51827;51.186;6.926;2022-07-23T04:23:07;8.13;;;4.68;;
65238;SDS011;51827;51.186;6.926;2022-07-23T04:24:07;7.97;;;4.17;;
65238;SDS011;51827;51.186;6.926;2022-07-23T04:25:08;8.80;;;4.43;;
65238;SDS011;51827;51.186;6.926;2022-07-23T04:26:08;8.63;;;4.43;;
65238;SDS011;51827;51.186;6.926;2022-07-23T04:27:08;10.80;;;4.57;;
65238;SDS011;51827;51.186;6.926;2022-07-23T04:28:09;9.35;;;4.25;;
65238;SDS011;51827;51.186;6.926;2022-07-23T04:29:09;8.17;;;4.07;;
65238;SDS011;51827;51.186;6.926;2022-07-23T04:30:09;10.30;;;4.53;;
65238;SDS011;51827;51.186;6.926;2022-07-23T04:31:10;6.80;;;4.00;;
65238;SDS011;51827;51.186;6.926;2022-07-23T04:32:10;7.40;;;4.20;;
65238;SDS011;51827;51.186;6.926;2022-07-23T04:33:11;6.63;;;4.03;;
65238;SDS011;51827;51.186;6.926;2022-07-23T04:34:11;7.90;;;4.70;;
65238;SDS011;51827;51.186;6.926;2022-07-23T04:35:11;6.73;;;4.30;;
65238;SDS011;51827;51.186;6.926;2022-07-23T04:36:11;6.93;;;3.90;;
65238;SDS011;51827;51.186;6.926;2022-07-23T04:37:12;7.33;;;4.17;;
65238;SDS011;51827;51.186;6.926;2022-07-23T04:38:12;5.37;;;3.83;;
65238;SDS011;51827;51.186;6.926;2022-07-23T04:39:12;7.50;;;4.40;;
65238;SDS011;51827;51.186;6.926;2022-07-23T04:40:13;7.27;;;3.90;;
65238;SDS011;51827;51.186;6.926;2022-07-23T04:41:13;7.10;;;4.32;;
65238;SDS011;51827;51.186;6.926;2022-07-23T04:42:13;7.43;;;4.50;;
65238;SDS011;51827;51.186;6.926;2022-07-23T04:43:14;7.77;;;4.20;;
65238;SDS011;51827;51.186;6.926;2022-07-23T04:44:14;7.60;;;4.53;;
65238;SDS011;51827;51.186;6.926;2022-07-23T04:45:14;6.10;;;3.80;;
65238;SDS011;51827;51.186;6.926;2022-07-23T04:46:14;6.67;;;4.20;;
65238;SDS011;51827;51.186;6.926;2022-07-23T04:47:15;6.90;;;4.47;;
65238;SDS011;51827;51.186;6.926;2022-07-23T04:48:15;6.20;;;4.10;;
65238;SDS011;51827;51.186;6.926;2022-07-23T04:49:15;5.37;;;3.93;;
65238;SDS011;51827;51.186;6.926;2022-07-23T04:50:16;8.57;;;3.80;;
65238;SDS011;51827;51.186;6.926;2022-07-23T04:51:16;5.82;;;4.10;;
65238;SDS011;51827;51.186;6.926;2022-07-23T04:52:16;6.63;;;4.50;;
65238;SDS011;51827;51.186;6.926;2022-07-23T04:53:17;6.83;;;4.03;;
65238;SDS011;51827;51.186;6.926;2022-07-23T04:54:18;7.90;;;3.90;;
65238;SDS011;51827;51.186;6.926;2022-07-23T04:55:18;6.88;;;4.25;;
65238;SDS011;51827;51.186;6.926;2022-07-23T04:56:18;6.07;;;4.03;;
65238;SDS011;51827;51.186;6.926;2022-07-23T04:57:19;11.10;;;4.03;;
65238;SDS011;51827;51.186;6.926;2022-07-23T04:58:19;5.83;;;3.97;;
65238;SDS011;51827;51.186;6.926;2022-07-23T04:59:19;8.63;;;4.30;;
65238;SDS011;51827;51.186;6.926;2022-07-23T05:00:19;7.17;;;4.00;;
65238;SDS011;51827;51.186;6.926;2022-07-23T05:01:20;8.57;;;4.17;;
65238;SDS011;51827;51.186;6.926;2022-07-23T05:02:20;6.30;;;3.80;;
65238;SDS011;51827;51.186;6.926;2022-07-23T05:03:20;7.20;;;4.20;;
65238;SDS011;51827;51.186;6.926;2022-07-23T05:04:21;9.97;;;4.40;;
65238;SDS011;51827;51.186;6.926;2022-07-23T05:05:21;5.80;;;4.13;;
65238;SDS011;51827;51.186;6.926;2022-07-23T05:06:21;7.22;;;4.07;;
65238;SDS011;51827;51.186;6.926;2022-07-23T05:07:21;7.30;;;4.43;;
65238;SDS011;51827;51.186;6.926;2022-07-23T05:08:22;9.20;;;4.88;;
65238;SDS011;51827;51.186;6.926;2022-07-23T05:09:22;8.27;;;4.00;;
65238;SDS011;51827;51.186;6.926;2022-07-23T05:10:23;6.85;;;4.05;;
65238;SDS011;51827;51.186;6.926;2022-07-23T05:11:23;9.90;;;5.17;;
65238;SDS011;51827;51.186;6.926;2022-07-23T05:12:23;7.90;;;3.73;;
65238;SDS011;51827;51.186;6.926;2022-07-23T05:13:23;5.77;;;4.10;;
65238;SDS011;51827;51.186;6.926;2022-07-23T05:14:24;6.57;;;4.47;;
65238;SDS011;51827;51.186;6.926;2022-07-23T05:15:24;11.50;;;4.17;;
65238;SDS011;51827;51.186;6.926;2022-07-23T05:16:24;6.25;;;4.28;;
65238;SDS011;51827;51.186;6.926;2022-07-23T05:17:25;9.90;;;4.57;;
65238;SDS011;51827;51.186;6.926;2022-07-23T05:18:25;8.37;;;4.37;;
65238;SDS011;51827;51.186;6.926;2022-07-23T05:19:25;5.97;;;4.10;;
65238;SDS011;51827;51.186;6.926;2022-07-23T05:20:25;6.70;;;4.30;;
65238;SDS011;51827;51.186;6.926;2022-07-23T05:21:26;8.77;;;4.87;;
65238;SDS011;51827;51.186;6.926;2022-07-23T05:22:26;6.88;;;4.43;;
65238;SDS011;51827;51.186;6.926;2022-07-23T05:23:27;6.97;;;4.15;;
65238;SDS011;51827;51.186;6.926;2022-07-23T05:24:27;8.97;;;4.23;;
65238;SDS011;51827;51.186;6.926;2022-07-23T05:25:27;8.97;;;4.70;;
65238;SDS011;51827;51.186;6.926;2022-07-23T05:26:27;8.23;;;4.80;;
65238;SDS011;51827;51.186;6.926;2022-07-23T05:27:28;7.40;;;4.30;;
65238;SDS011;51827;51.186;6.926;2022-07-23T05:28:28;5.27;;;4.10;;
65238;SDS011;51827;51.186;6.926;2022-07-23T05:29:28;8.20;;;4.03;;
65238;SDS011;51827;51.186;6.926;2022-07-23T05:30:28;8.20;;;4.47;;
65238;SDS011;51827;51.186;6.926;2022-07-23T05:31:29;6.60;;;4.57;;
65238;SDS011;51827;51.186;6.926;2022-07-23T05:32:31;7.50;;;4.47;;
65238;SDS011;51827;51.186;6.926;2022-07-23T05:33:31;7.88;;;5.25;;
65238;SDS011;51827;51.186;6.926;2022-07-23T05:34:32;8.53;;;5.53;;
65238;SDS011;51827;51.186;6.926;2022-07-23T05:35:32;9.27;;;5.17;;
65238;SDS011;51827;51.186;6.926;2022-07-23T05:36:32;6.87;;;5.23;;
65238;SDS011;51827;51.186;6.926;2022-07-23T05:37:33;12.55;;;5.70;;
65238;SDS011;51827;51.186;6.926;2022-07-23T05:38:33;7.15;;;5.18;;
65238;SDS011;51827;51.186;6.926;2022-07-23T05:39:34;8.93;;;5.68;;
65238;SDS011;51827;51.186;6.926;2022-07-23T05:40:34;8.73;;;5.77;;
65238;SDS011;51827;51.186;6.926;2022-07-23T05:41:34;8.53;;;5.67;;
65238;SDS011;51827;51.186;6.926;2022-07-23T05:42:35;10.10;;;5.67;;
65238;SDS011;51827;51.186;6.926;2022-07-23T05:43:36;10.07;;;5.82;;
65238;SDS011;51827;51.186;6.926;2022-07-23T05:44:36;10.33;;;5.30;;
65238;SDS011;51827;51.186;6.926;2022-07-23T05:45:36;10.43;;;5.60;;
65238;SDS011;51827;51.186;6.926;2022-07-23T05:46:36;10.10;;;5.63;;
65238;SDS011;51827;51.186;6.926;2022-07-23T05:47:44;13.57;;;5.70;;
65238;SDS011;51827;51.186;6.926;2022-07-23T05:48:48;9.25;;;5.38;;
65238;SDS011;51827;51.186;6.926;2022-07-23T05:49:48;7.93;;;5.33;;
65238;SDS011;51827;51.186;6.926;2022-07-23T05:50:48;9.37;;;5.20;;
65238;SDS011;51827;51.186;6.926;2022-07-23T05:51:49;8.47;;;4.63;;
65238;SDS011;51827;51.186;6.926;2022-07-23T05:52:49;7.60;;;4.63;;
65238;SDS011;51827;51.186;6.926;2022-07-23T05:53:49;8.17;;;4.67;;
65238;SDS011;51827;51.186;6.926;2022-07-23T05:54:50;7.07;;;4.40;;
65238;SDS011;51827;51.186;6.926;2022-07-23T05:55:50;8.13;;;4.20;;
65238;SDS011;51827;51.186;6.926;2022-07-23T05:56:50;6.73;;;4.77;;
65238;SDS011;51827;51.186;6.926;2022-07-23T05:57:51;9.90;;;4.63;;
65238;SDS011;51827;51.186;6.926;2022-07-23T05:58:51;8.43;;;5.33;;
65238;SDS011;51827;51.186;6.926;2022-07-23T05:59:51;8.40;;;6.10;;
65238;SDS011;51827;51.186;6.926;2022-07-23T06:00:51;7.30;;;5.57;;
65238;SDS011;51827;51.186;6.926;2022-07-23T06:01:52;9.33;;;6.00;;
65238;SDS011;51827;51.186;6.926;2022-07-23T06:02:52;9.70;;;5.77;;
65238;SDS011;51827;51.186;6.926;2022-07-23T06:03:52;10.27;;;6.40;;
65238;SDS011;51827;51.186;6.926;2022-07-23T06:04:53;9.47;;;6.37;;
65238;SDS011;51827;51.186;6.926;2022-07-23T06:05:53;13.33;;;6.20;;